sensor_id;sensor_type;location;lat;lon;timestamp;pressure;altitude;pressure_sealevel;temperature;humidity
68941;BME280;55982;51.476;7.552;2023-04-24T00:00:14;98246.50;;;10.25;100.00
68941;BME280;55982;51.476;7.552;2023-04-24T00:02:41;98260.47;;;10.24;100.00
68941;BME280;55982;51.476;7.552;2023-04-24T00:05:10;98256.94;;;10.25;100.00
68941;BME280;55982;51.476;7.552;2023-04-24T00:07:35;98257.38;;;10.18;100.00
68941;BME280;55982;51.476;7.552;2023-04-24T00:10:00;98254.41;;;10.08;100.00
68941;BME280;55982;51.476;7.552;2023-04-24T00:12:26;98264.00;;;10.07;100.00
68941;BME280;55982;51.476;7.552;2023-04-24T00:14:52;98258.13;;;10.04;100.00
68941;BME280;55982;51.476;7.552;2023-04-24T00:17:17;98262.09;;;10.11;100.00
68941;BME280;55982;51.476;7.552;2023-04-24T00:19:47;98264.38;;;10.17;100.00
68941;BME280;55982;51.476;7.552;2023-04-24T00:22:12;98262.69;;;10.16;100.00
68941;BME280;55982;51.476;7.552;2023-04-24T00:24:39;98258.81;;;10.23;100.00
68941;BME280;55982;51.476;7.552;2023-04-24T00:27:04;98256.84;;;10.27;100.00
68941;BME280;55982;51.476;7.552;2023-04-24T00:29:30;98262.16;;;10.25;100.00
68941;BME280;55982;51.476;7.552;2023-04-24T00:31:55;98260.31;;;10.27;100.00
68941;BME280;55982;51.476;7.552;2023-04-24T00:34:21;98256.94;;;10.25;100.00
68941;BME280;55982;51.476;7.552;2023-04-24T00:36:46;98264.19;;;10.20;100.00
68941;BME280;55982;51.476;7.552;2023-04-24T00:39:11;98255.63;;;10.18;100.00
68941;BME280;55982;51.476;7.552;2023-04-24T00:41:37;98270.25;;;10.21;100.00
68941;BME280;55982;51.476;7.552;2023-04-24T00:44:02;98261.41;;;10.23;100.00
68941;BME280;55982;51.476;7.552;2023-04-24T00:46:28;98253.72;;;10.20;100.00
68941;BME280;55982;51.476;7.552;2023-04-24T00:48:53;98257.19;;;10.21;100.00
68941;BME280;55982;51.476;7.552;2023-04-24T00:51:20;98254.09;;;10.14;100.00
68941;BME280;55982;51.476;7.552;2023-04-24T00:53:46;98248.44;;;10.06;100.00
68941;BME280;55982;51.476;7.552;2023-04-24T00:56:11;98254.91;;;9.99;100.00
68941;BME280;55982;51.476;7.552;2023-04-24T00:58:36;98257.25;;;10.03;100.00
68941;BME280;55982;51.476;7.552;2023-04-24T01:01:02;98252.72;;;10.07;100.00
68941;BME280;55982;51.476;7.552;2023-04-24T01:03:33;98256.97;;;10.09;100.00
68941;BME280;55982;51.476;7.552;2023-04-24T01:05:58;98244.13;;;10.05;100.00
68941;BME280;55982;51.476;7.552;2023-04-24T01:08:26;98255.22;;;10.08;100.00
68941;BME280;55982;51.476;7.552;2023-04-24T01:10:52;98245.81;;;10.06;100.00
68941;BME280;55982;51.476;7.552;2023-04-24T01:13:18;98240.94;;;10.00;100.00
68941;BME280;55982;51.476;7.552;2023-04-24T01:15:44;98232.34;;;9.98;100.00
68941;BME280;55982;51.476;7.552;2023-04-24T01:18:10;98243.19;;;10.06;100.00
68941;BME280;55982;51.476;7.552;2023-04-24T01:20:36;98244.66;;;10.11;100.00
68941;BME280;55982;51.476;7.552;2023-04-24T01:23:05;98248.03;;;10.13;100.00
68941;BME280;55982;51.476;7.552;2023-04-24T01:25:31;98241.75;;;10.32;100.00
68941;BME280;55982;51.476;7.552;2023-04-24T01:27:57;98245.59;;;10.40;100.00
68941;BME280;55982;51.476;7.552;2023-04-24T01:30:24;98248.78;;;10.45;100.00
68941;BME280;55982;51.476;7.552;2023-04-24T01:32:50;98242.47;;;10.49;100.00
68941;BME280;55982;51.476;7.552;2023-04-24T01:35:16;98242.69;;;10.60;100.00
68941;BME280;55982;51.476;7.552;2023-04-24T01:37:42;98245.13;;;10.63;100.00
68941;BME280;55982;51.476;7.552;2023-04-24T01:40:08;98242.69;;;10.60;100.00
68941;BME280;55982;51.476;7.552;2023-04-24T01:42:34;98246.63;;;10.67;100.00
68941;BME280;55982;51.476;7.552;2023-04-24T01:45:00;98232.25;;;10.60;100.00
68941;BME280;55982;51.476;7.552;2023-04-24T01:47:28;98232.81;;;10.65;100.00
68941;BME280;55982;51.476;7.552;2023-04-24T01:49:53;98233.56;;;10.67;100.00
68941;BME280;55982;51.476;7.552;2023-04-24T01:52:18;98233.75;;;10.78;100.00
68941;BME280;55982;51.476;7.552;2023-04-24T01:54:44;98230.22;;;10.79;100.00
68941;BME280;55982;51.476;7.552;2023-04-24T01:57:10;98228.53;;;10.78;100.00
68941;BME280;55982;51.476;7.552;2023-04-24T01:59:36;98231.13;;;10.78;100.00
68941;BME280;55982;51.476;7.552;2023-04-24T02:02:02;98231.69;;;10.69;100.00
68941;BME280;55982;51.476;7.552;2023-04-24T02:04:27;98235.97;;;10.70;100.00
68941;BME280;55982;51.476;7.552;2023-04-24T02:06:53;98236.91;;;10.69;100.00
68941;BME280;55982;51.476;7.552;2023-04-24T02:09:18;98232.34;;;10.73;100.00
68941;BME280;55982;51.476;7.552;2023-04-24T02:11:44;98236.72;;;10.72;100.00
68941;BME280;55982;51.476;7.552;2023-04-24T02:14:09;98234.09;;;10.72;100.00
68941;BME280;55982;51.476;7.552;2023-04-24T02:16:34;98241.31;;;10.69;100.00
68941;BME280;55982;51.476;7.552;2023-04-24T02:19:01;98242.31;;;10.66;100.00
68941;BME280;55982;51.476;7.552;2023-04-24T02:21:26;98245.88;;;10.65;100.00
68941;BME280;55982;51.476;7.552;2023-04-24T02:23:52;98243.34;;;10.64;100.00
68941;BME280;55982;51.476;7.552;2023-04-24T02:26:18;98233.91;;;10.61;100.00
68941;BME280;55982;51.476;7.552;2023-04-24T02:28:43;98245.38;;;10.59;100.00
68941;BME280;55982;51.476;7.552;2023-04-24T02:31:09;98248.66;;;10.62;100.00
68941;BME280;55982;51.476;7.552;2023-04-24T02:33:34;98254.63;;;10.64;100.00
68941;BME280;55982;51.476;7.552;2023-04-24T02:36:01;98252.56;;;10.55;100.00
68941;BME280;55982;51.476;7.552;2023-04-24T02:38:26;98253.75;;;10.50;100.00
68941;BME280;55982;51.476;7.552;2023-04-24T02:40:52;98261.69;;;10.48;100.00
68941;BME280;55982;51.476;7.552;2023-04-24T02:43:17;98264.47;;;10.45;100.00
68941;BME280;55982;51.476;7.552;2023-04-24T02:45:43;98259.63;;;10.39;100.00
68941;BME280;55982;51.476;7.552;2023-04-24T02:48:08;98260.13;;;10.30;100.00
68941;BME280;55982;51.476;7.552;2023-04-24T02:50:33;98256.75;;;10.28;100.00
68941;BME280;55982;51.476;7.552;2023-04-24T02:52:59;98244.97;;;10.21;100.00
68941;BME280;55982;51.476;7.552;2023-04-24T02:55:24;98240.94;;;10.16;100.00
68941;BME280;55982;51.476;7.552;2023-04-24T02:57:50;98262.69;;;10.16;100.00
68941;BME280;55982;51.476;7.552;2023-04-24T03:00:15;98270.25;;;10.05;100.00
68941;BME280;55982;51.476;7.552;2023-04-24T03:02:41;98269.09;;;9.95;100.00
68941;BME280;55982;51.476;7.552;2023-04-24T03:05:07;98255.59;;;9.87;100.00
68941;BME280;55982;51.476;7.552;2023-04-24T03:07:33;98271.75;;;9.78;100.00
68941;BME280;55982;51.476;7.552;2023-04-24T03:09:58;98271.41;;;9.68;100.00
68941;BME280;55982;51.476;7.552;2023-04-24T03:12:24;98284.88;;;9.61;100.00
68941;BME280;55982;51.476;7.552;2023-04-24T03:14:49;98285.06;;;9.58;100.00
68941;BME280;55982;51.476;7.552;2023-04-24T03:17:15;98281.88;;;9.53;100.00
68941;BME280;55982;51.476;7.552;2023-04-24T03:19:40;98286.56;;;9.46;100.00
68941;BME280;55982;51.476;7.552;2023-04-24T03:22:06;98289.25;;;9.45;100.00
68941;BME280;55982;51.476;7.552;2023-04-24T03:24:31;98290.47;;;9.38;100.00
68941;BME280;55982;51.476;7.552;2023-04-24T03:26:56;98283.69;;;9.35;100.00
68941;BME280;55982;51.476;7.552;2023-04-24T03:29:22;98291.41;;;9.37;100.00
68941;BME280;55982;51.476;7.552;2023-04-24T03:31:47;98284.66;;;9.33;100.00
68941;BME280;55982;51.476;7.552;2023-04-24T03:34:13;98292.50;;;9.33;100.00
68941;BME280;55982;51.476;7.552;2023-04-24T03:36:38;98284.00;;;9.29;100.00
68941;BME280;55982;51.476;7.552;2023-04-24T03:39:03;98290.81;;;9.32;100.00
68941;BME280;55982;51.476;7.552;2023-04-24T03:41:29;98298.47;;;9.35;100.00
68941;BME280;55982;51.476;7.552;2023-04-24T03:43:55;98294.94;;;9.36;100.00
68941;BME280;55982;51.476;7.552;2023-04-24T03:46:21;98300.16;;;9.36;100.00
68941;BME280;55982;51.476;7.552;2023-04-24T03:48:46;98296.47;;;9.40;100.00
68941;BME280;55982;51.476;7.552;2023-04-24T03:51:11;98297.09;;;9.45;100.00
68941;BME280;55982;51.476;7.552;2023-04-24T03:53:37;98302.13;;;9.48;100.00
68941;BME280;55982;51.476;7.552;2023-04-24T03:56:02;98308.09;;;9.50;100.00
68941;BME280;55982;51.476;7.552;2023-04-24T03:58:27;98305.59;;;9.48;100.00
68941;BME280;55982;51.476;7.552;2023-04-24T04:00:53;98302.13;;;9.48;100.00
68941;BME280;55982;51.476;7.552;2023-04-24T04:03:18;98313.19;;;9.53;100.00
68941;BME280;55982;51.476;7.552;2023-04-24T04:05:43;98308.03;;;9.51;100.00
68941;BME280;55982;51.476;7.552;2023-04-24T04:08:09;98305.34;;;9.53;100.00
68941;BME280;55982;51.476;7.552;2023-04-24T04:10:34;98302.75;;;9.53;100.00
68941;BME280;55982;51.476;7.552;2023-04-24T04:13:00;98311.31;;;9.55;100.00
68941;BME280;55982;51.476;7.552;2023-04-24T04:15:25;98309.81;;;9.51;100.00
68941;BME280;55982;51.476;7.552;2023-04-24T04:17:50;98316.53;;;9.55;100.00
68941;BME280;55982;51.476;7.552;2023-04-24T04:20:16;98316.69;;;9.52;100.00
68941;BME280;55982;51.476;7.552;2023-04-24T04:22:41;98314.84;;;9.54;100.00
68941;BME280;55982;51.476;7.552;2023-04-24T04:25:07;98319.50;;;9.49;100.00
68941;BME280;55982;51.476;7.552;2023-04-24T04:27:33;98308.28;;;9.47;100.00
68941;BME280;55982;51.476;7.552;2023-04-24T04:30:00;98308.91;;;9.35;100.00
68941;BME280;55982;51.476;7.552;2023-04-24T04:32:31;98310.16;;;9.28;100.00
68941;BME280;55982;51.476;7.552;2023-04-24T04:34:58;98309.09;;;9.32;100.00
68941;BME280;55982;51.476;7.552;2023-04-24T04:37:31;98319.34;;;9.35;100.00
68941;BME280;55982;51.476;7.552;2023-04-24T04:39:58;98311.28;;;9.39;100.00
68941;BME280;55982;51.476;7.552;2023-04-24T04:42:24;98313.56;;;9.45;100.00
68941;BME280;55982;51.476;7.552;2023-04-24T04:44:50;98311.66;;;9.49;100.00
68941;BME280;55982;51.476;7.552;2023-04-24T04:47:16;98316.53;;;9.55;100.00
68941;BME280;55982;51.476;7.552;2023-04-24T04:49:42;98310.06;;;9.62;100.00
68941;BME280;55982;51.476;7.552;2023-04-24T04:52:08;98314.34;;;9.63;100.00
68941;BME280;55982;51.476;7.552;2023-04-24T04:54:34;98307.28;;;9.65;100.00
68941;BME280;55982;51.476;7.552;2023-04-24T04:56:59;98319.44;;;9.66;100.00
68941;BME280;55982;51.476;7.552;2023-04-24T04:59:25;98314.53;;;9.60;100.00
68941;BME280;55982;51.476;7.552;2023-04-24T05:01:51;98312.69;;;9.62;100.00
68941;BME280;55982;51.476;7.552;2023-04-24T05:04:16;98324.47;;;9.69;100.00
68941;BME280;55982;51.476;7.552;2023-04-24T05:06:41;98314.22;;;9.66;100.00
68941;BME280;55982;51.476;7.552;2023-04-24T05:09:07;98318.91;;;9.59;100.00
68941;BME280;55982;51.476;7.552;2023-04-24T05:11:32;98314.69;;;9.57;100.00
68941;BME280;55982;51.476;7.552;2023-04-24T05:13:58;98310.41;;;9.56;100.00
68941;BME280;55982;51.476;7.552;2023-04-24T05:16:23;98313.78;;;9.58;100.00
68941;BME280;55982;51.476;7.552;2023-04-24T05:18:48;98311.31;;;9.55;100.00
68941;BME280;55982;51.476;7.552;2023-04-24T05:21:14;98313.00;;;9.56;100.00
68941;BME280;55982;51.476;7.552;2023-04-24T05:23:39;98318.00;;;9.60;100.00
68941;BME280;55982;51.476;7.552;2023-04-24T05:26:04;98303.56;;;9.53;100.00
68941;BME280;55982;51.476;7.552;2023-04-24T05:28:30;98305.00;;;9.59;100.00
68941;BME280;55982;51.476;7.552;2023-04-24T05:30:55;98310.72;;;9.50;100.00
68941;BME280;55982;51.476;7.552;2023-04-24T05:33:21;98317.09;;;9.44;100.00
68941;BME280;55982;51.476;7.552;2023-04-24T05:35:47;98304.91;;;9.45;100.00
68941;BME280;55982;51.476;7.552;2023-04-24T05:38:13;98312.34;;;9.52;100.00
68941;BME280;55982;51.476;7.552;2023-04-24T05:40:39;98315.94;;;9.50;100.00
68941;BME280;55982;51.476;7.552;2023-04-24T05:43:04;98310.66;;;9.67;100.00
68941;BME280;55982;51.476;7.552;2023-04-24T05:45:30;98316.56;;;9.86;100.00
68941;BME280;55982;51.476;7.552;2023-04-24T05:47:55;98325.03;;;9.91;100.00
68941;BME280;55982;51.476;7.552;2023-04-24T05:50:21;98332.94;;;9.74;100.00
68941;BME280;55982;51.476;7.552;2023-04-24T05:52:46;98335.25;;;9.63;100.00
68941;BME280;55982;51.476;7.552;2023-04-24T05:55:12;98330.19;;;9.60;100.00
68941;BME280;55982;51.476;7.552;2023-04-24T05:57:37;98335.75;;;9.54;100.00
68941;BME280;55982;51.476;7.552;2023-04-24T06:00:04;98343.75;;;9.51;100.00
68941;BME280;55982;51.476;7.552;2023-04-24T06:02:30;98334.41;;;9.30;100.00
68941;BME280;55982;51.476;7.552;2023-04-24T06:05:00;98331.66;;;9.15;100.00
68941;BME280;55982;51.476;7.552;2023-04-24T06:07:25;98333.53;;;8.96;100.00
68941;BME280;55982;51.476;7.552;2023-04-24T06:09:51;98343.94;;;8.96;100.00
68941;BME280;55982;51.476;7.552;2023-04-24T06:12:17;98343.78;;;8.99;100.00
68941;BME280;55982;51.476;7.552;2023-04-24T06:14:42;98341.25;;;8.98;100.00
68941;BME280;55982;51.476;7.552;2023-04-24T06:17:08;98344.72;;;8.98;100.00
68941;BME280;55982;51.476;7.552;2023-04-24T06:19:33;98348.69;;;9.05;100.00
68941;BME280;55982;51.476;7.552;2023-04-24T06:21:59;98340.56;;;9.11;100.00
68941;BME280;55982;51.476;7.552;2023-04-24T06:24:28;98342.00;;;9.17;100.00
68941;BME280;55982;51.476;7.552;2023-04-24T06:26:53;98348.28;;;9.30;100.00
68941;BME280;55982;51.476;7.552;2023-04-24T06:29:19;98350.75;;;9.66;100.00
68941;BME280;55982;51.476;7.552;2023-04-24T06:31:44;98344.06;;;9.77;100.00
68941;BME280;55982;51.476;7.552;2023-04-24T06:34:10;98337.66;;;9.83;100.00
68941;BME280;55982;51.476;7.552;2023-04-24T06:36:35;98344.06;;;9.77;100.00
68941;BME280;55982;51.476;7.552;2023-04-24T06:39:01;98353.47;;;9.80;100.00
68941;BME280;55982;51.476;7.552;2023-04-24T06:41:28;98357.84;;;9.64;100.00
68941;BME280;55982;51.476;7.552;2023-04-24T06:43:54;98360.00;;;9.56;100.00
68941;BME280;55982;51.476;7.552;2023-04-24T06:46:19;98356.94;;;9.48;100.00
68941;BME280;55982;51.476;7.552;2023-04-24T06:48:47;98357.78;;;9.48;100.00
68941;BME280;55982;51.476;7.552;2023-04-24T06:51:12;98348.50;;;9.43;100.00
68941;BME280;55982;51.476;7.552;2023-04-24T06:53:38;98354.94;;;9.53;100.00
68941;BME280;55982;51.476;7.552;2023-04-24T06:56:03;98363.38;;;9.58;100.00
68941;BME280;55982;51.476;7.552;2023-04-24T06:58:30;98356.78;;;9.51;100.00
68941;BME280;55982;51.476;7.552;2023-04-24T07:00:55;98363.69;;;9.52;100.00
68941;BME280;55982;51.476;7.552;2023-04-24T07:03:21;98355.69;;;9.55;100.00
68941;BME280;55982;51.476;7.552;2023-04-24T07:05:46;98350.88;;;9.47;100.00
68941;BME280;55982;51.476;7.552;2023-04-24T07:08:12;98352.50;;;9.33;100.00
68941;BME280;55982;51.476;7.552;2023-04-24T07:10:38;98358.72;;;9.30;100.00
68941;BME280;55982;51.476;7.552;2023-04-24T07:13:04;98353.06;;;9.39;100.00
68941;BME280;55982;51.476;7.552;2023-04-24T07:15:29;98360.78;;;9.41;100.00
68941;BME280;55982;51.476;7.552;2023-04-24T07:17:55;98362.47;;;9.42;100.00
68941;BME280;55982;51.476;7.552;2023-04-24T07:20:21;98360.06;;;9.21;100.00
68941;BME280;55982;51.476;7.552;2023-04-24T07:22:46;98361.28;;;9.32;100.00
68941;BME280;55982;51.476;7.552;2023-04-24T07:25:13;98364.31;;;9.40;100.00
68941;BME280;55982;51.476;7.552;2023-04-24T07:27:38;98359.56;;;9.31;100.00
68941;BME280;55982;51.476;7.552;2023-04-24T07:30:04;98362.88;;;9.67;100.00
68941;BME280;55982;51.476;7.552;2023-04-24T07:32:30;98361.22;;;9.66;100.00
68941;BME280;55982;51.476;7.552;2023-04-24T07:34:55;98367.97;;;10.01;100.00
68941;BME280;55982;51.476;7.552;2023-04-24T07:37:21;98353.06;;;10.03;100.00
68941;BME280;55982;51.476;7.552;2023-04-24T07:39:47;98346.47;;;10.13;100.00
68941;BME280;55982;51.476;7.552;2023-04-24T07:42:12;98358.75;;;10.11;100.00
68941;BME280;55982;51.476;7.552;2023-04-24T07:44:38;98365.13;;;9.90;100.00
68941;BME280;55982;51.476;7.552;2023-04-24T07:47:03;98366.63;;;9.94;100.00
68941;BME280;55982;51.476;7.552;2023-04-24T07:49:28;98362.13;;;9.65;100.00
68941;BME280;55982;51.476;7.552;2023-04-24T07:51:54;98375.47;;;9.43;100.00
68941;BME280;55982;51.476;7.552;2023-04-24T07:54:20;98375.50;;;9.42;100.00
68941;BME280;55982;51.476;7.552;2023-04-24T07:56:45;98377.25;;;9.26;100.00
68941;BME280;55982;51.476;7.552;2023-04-24T07:59:10;98372.81;;;9.10;100.00
68941;BME280;55982;51.476;7.552;2023-04-24T08:01:36;98382.47;;;9.08;100.00
68941;BME280;55982;51.476;7.552;2023-04-24T08:04:01;98382.31;;;8.94;100.00
68941;BME280;55982;51.476;7.552;2023-04-24T08:06:27;98387.25;;;8.82;100.00
68941;BME280;55982;51.476;7.552;2023-04-24T08:08:55;98388.69;;;8.70;100.00
68941;BME280;55982;51.476;7.552;2023-04-24T08:11:21;98393.09;;;8.51;100.00
68941;BME280;55982;51.476;7.552;2023-04-24T08:13:46;98406.38;;;8.47;100.00
68941;BME280;55982;51.476;7.552;2023-04-24T08:16:12;98402.44;;;8.38;100.00
68941;BME280;55982;51.476;7.552;2023-04-24T08:18:37;98414.56;;;8.39;100.00
68941;BME280;55982;51.476;7.552;2023-04-24T08:21:03;98394.38;;;8.61;100.00
68941;BME280;55982;51.476;7.552;2023-04-24T08:23:28;98377.94;;;8.78;100.00
68941;BME280;55982;51.476;7.552;2023-04-24T08:25:55;98400.28;;;8.82;100.00
68941;BME280;55982;51.476;7.552;2023-04-24T08:28:20;98399.09;;;8.89;100.00
68941;BME280;55982;51.476;7.552;2023-04-24T08:30:46;98399.69;;;8.77;100.00
68941;BME280;55982;51.476;7.552;2023-04-24T08:33:12;98411.53;;;8.65;100.00
68941;BME280;55982;51.476;7.552;2023-04-24T08:35:38;98406.63;;;8.59;100.00
68941;BME280;55982;51.476;7.552;2023-04-24T08:38:04;98425.09;;;8.55;100.00
68941;BME280;55982;51.476;7.552;2023-04-24T08:40:33;98418.38;;;8.49;100.00
68941;BME280;55982;51.476;7.552;2023-04-24T08:42:59;98424.38;;;8.51;100.00
68941;BME280;55982;51.476;7.552;2023-04-24T08:45:25;98427.50;;;8.76;100.00
68941;BME280;55982;51.476;7.552;2023-04-24T08:47:53;98424.63;;;8.82;100.00
68941;BME280;55982;51.476;7.552;2023-04-24T08:50:20;98432.88;;;8.73;100.00
68941;BME280;55982;51.476;7.552;2023-04-24T08:52:47;98439.59;;;8.60;100.00
68941;BME280;55982;51.476;7.552;2023-04-24T08:55:12;98450.59;;;8.48;100.00
68941;BME280;55982;51.476;7.552;2023-04-24T08:57:39;98447.22;;;8.46;100.00
68941;BME280;55982;51.476;7.552;2023-04-24T09:00:06;98443.13;;;8.22;100.00
68941;BME280;55982;51.476;7.552;2023-04-24T09:02:31;98447.03;;;8.12;100.00
68941;BME280;55982;51.476;7.552;2023-04-24T09:04:59;98445.75;;;8.02;100.00
68941;BME280;55982;51.476;7.552;2023-04-24T09:07:27;98450.69;;;8.08;100.00
68941;BME280;55982;51.476;7.552;2023-04-24T09:09:53;98452.53;;;8.06;100.00
68941;BME280;55982;51.476;7.552;2023-04-24T09:12:19;98454.69;;;7.96;100.00
68941;BME280;55982;51.476;7.552;2023-04-24T09:14:45;98459.81;;;7.98;100.00
68941;BME280;55982;51.476;7.552;2023-04-24T09:17:11;98463.34;;;7.97;100.00
68941;BME280;55982;51.476;7.552;2023-04-24T09:19:37;98465.19;;;7.95;100.00
68941;BME280;55982;51.476;7.552;2023-04-24T09:22:06;98465.03;;;7.98;100.00
68941;BME280;55982;51.476;7.552;2023-04-24T09:24:34;98475.59;;;7.95;100.00
68941;BME280;55982;51.476;7.552;2023-04-24T09:27:00;98478.56;;;8.06;100.00
68941;BME280;55982;51.476;7.552;2023-04-24T09:29:29;98471.00;;;8.20;100.00
68941;BME280;55982;51.476;7.552;2023-04-24T09:31:55;98473.34;;;8.06;100.00
68941;BME280;55982;51.476;7.552;2023-04-24T09:34:22;98480.81;;;7.95;100.00
68941;BME280;55982;51.476;7.552;2023-04-24T09:36:49;98491.06;;;7.98;100.00
68941;BME280;55982;51.476;7.552;2023-04-24T09:39:15;98488.63;;;7.95;100.00
68941;BME280;55982;51.476;7.552;2023-04-24T09:44:24;98505.66;;;8.02;100.00
68941;BME280;55982;51.476;7.552;2023-04-24T09:46:52;98509.28;;;7.98;100.00
68941;BME280;55982;51.476;7.552;2023-04-24T09:49:29;98523.63;;;8.08;100.00
68941;BME280;55982;51.476;7.552;2023-04-24T09:52:08;98535.72;;;8.09;100.00
68941;BME280;55982;51.476;7.552;2023-04-24T09:54:34;98546.00;;;8.12;100.00
68941;BME280;55982;51.476;7.552;2023-04-24T09:57:02;98551.94;;;8.15;100.00
68941;BME280;55982;51.476;7.552;2023-04-24T09:59:27;98555.91;;;8.24;100.00
68941;BME280;55982;51.476;7.552;2023-04-24T10:01:52;98561.50;;;8.15;100.00
68941;BME280;55982;51.476;7.552;2023-04-24T10:04:19;98568.25;;;8.19;100.00
68941;BME280;55982;51.476;7.552;2023-04-24T10:06:46;98576.22;;;8.36;100.00
68941;BME280;55982;51.476;7.552;2023-04-24T10:09:12;98587.94;;;8.46;100.00
68941;BME280;55982;51.476;7.552;2023-04-24T10:11:42;98582.19;;;8.58;100.00
68941;BME280;55982;51.476;7.552;2023-04-24T10:14:11;98587.66;;;8.52;100.00
68941;BME280;55982;51.476;7.552;2023-04-24T10:16:38;98594.84;;;8.47;100.00
68941;BME280;55982;51.476;7.552;2023-04-24T10:19:04;98590.28;;;8.32;100.00
68941;BME280;55982;51.476;7.552;2023-04-24T10:21:30;98601.09;;;8.23;100.00
68941;BME280;55982;51.476;7.552;2023-04-24T10:23:55;98613.47;;;8.18;100.00
68941;BME280;55982;51.476;7.552;2023-04-24T10:26:22;98625.34;;;8.25;100.00
68941;BME280;55982;51.476;7.552;2023-04-24T10:28:47;98635.50;;;8.31;100.00
68941;BME280;55982;51.476;7.552;2023-04-24T10:31:14;98645.94;;;8.31;100.00
68941;BME280;55982;51.476;7.552;2023-04-24T10:33:43;98643.81;;;8.19;100.00
68941;BME280;55982;51.476;7.552;2023-04-24T10:36:11;98661.31;;;8.15;100.00
68941;BME280;55982;51.476;7.552;2023-04-24T10:38:39;98675.47;;;8.30;100.00
68941;BME280;55982;51.476;7.552;2023-04-24T10:41:11;98680.66;;;8.10;100.00
68941;BME280;55982;51.476;7.552;2023-04-24T10:43:41;98675.97;;;8.18;100.00
68941;BME280;55982;51.476;7.552;2023-04-24T10:46:08;98700.81;;;8.26;100.00
68941;BME280;55982;51.476;7.552;2023-04-24T10:48:35;98698.28;;;8.25;100.00
68941;BME280;55982;51.476;7.552;2023-04-24T10:51:11;98699.84;;;8.29;100.00
68941;BME280;55982;51.476;7.552;2023-04-24T10:53:36;98722.13;;;8.36;100.00
68941;BME280;55982;51.476;7.552;2023-04-24T10:58:44;98737.50;;;8.42;100.00
68941;BME280;55982;51.476;7.552;2023-04-24T11:01:25;98732.03;;;8.48;100.00
68941;BME280;55982;51.476;7.552;2023-04-24T11:03:55;98735.56;;;8.47;100.00
68941;BME280;55982;51.476;7.552;2023-04-24T11:06:34;98739.88;;;8.68;100.00
68941;BME280;55982;51.476;7.552;2023-04-24T11:09:05;98739.03;;;8.68;100.00
68941;BME280;55982;51.476;7.552;2023-04-24T11:11:31;98732.50;;;8.58;100.00
68941;BME280;55982;51.476;7.552;2023-04-24T11:21:49;98756.44;;;8.47;100.00
68941;BME280;55982;51.476;7.552;2023-04-24T11:27:15;98756.44;;;8.47;100.00
68941;BME280;55982;51.476;7.552;2023-04-24T11:35:06;98767.56;;;8.51;100.00
68941;BME280;55982;51.476;7.552;2023-04-24T11:37:38;98781.72;;;8.65;100.00
68941;BME280;55982;51.476;7.552;2023-04-24T11:40:05;98789.13;;;8.74;100.00
68941;BME280;55982;51.476;7.552;2023-04-24T11:42:42;98791.75;;;8.74;100.00
68941;BME280;55982;51.476;7.552;2023-04-24T11:45:13;98796.06;;;8.75;100.00
68941;BME280;55982;51.476;7.552;2023-04-24T11:47:39;98804.91;;;8.91;100.00
68941;BME280;55982;51.476;7.552;2023-04-24T11:50:16;98799.22;;;8.82;100.00
68941;BME280;55982;51.476;7.552;2023-04-24T11:52:44;98808.94;;;8.78;100.00
68941;BME280;55982;51.476;7.552;2023-04-24T11:57:53;98806.63;;;8.92;100.00
68941;BME280;55982;51.476;7.552;2023-04-24T12:00:21;98805.97;;;9.07;100.00
68941;BME280;55982;51.476;7.552;2023-04-24T12:02:47;98816.88;;;9.36;100.00
68941;BME280;55982;51.476;7.552;2023-04-24T12:05:22;98816.94;;;9.73;100.00
68941;BME280;55982;51.476;7.552;2023-04-24T12:07:48;98804.38;;;9.81;100.00
68941;BME280;55982;51.476;7.552;2023-04-24T12:10:14;98817.66;;;9.95;100.00
68941;BME280;55982;51.476;7.552;2023-04-24T12:12:39;98813.41;;;9.74;100.00
68941;BME280;55982;51.476;7.552;2023-04-24T12:15:09;98808.16;;;9.37;100.00
68941;BME280;55982;51.476;7.552;2023-04-24T12:17:35;98816.13;;;9.13;100.00
68941;BME280;55982;51.476;7.552;2023-04-24T12:20:06;98812.75;;;9.11;100.00
68941;BME280;55982;51.476;7.552;2023-04-24T12:25:11;98822.44;;;8.88;100.00
68941;BME280;55982;51.476;7.552;2023-04-24T12:27:37;98825.31;;;8.82;100.00
68941;BME280;55982;51.476;7.552;2023-04-24T12:30:04;98834.00;;;8.82;100.00
68941;BME280;55982;51.476;7.552;2023-04-24T12:32:30;98832.88;;;8.68;100.00
68941;BME280;55982;51.476;7.552;2023-04-24T12:34:57;98837.94;;;8.71;100.00
68941;BME280;55982;51.476;7.552;2023-04-24T12:37:24;98848.13;;;8.77;100.00
68941;BME280;55982;51.476;7.552;2023-04-24T12:40:05;98841.16;;;8.97;100.00
68941;BME280;55982;51.476;7.552;2023-04-24T12:42:32;98852.63;;;9.54;100.00
68941;BME280;55982;51.476;7.552;2023-04-24T12:45:00;98851.09;;;10.24;100.00
68941;BME280;55982;51.476;7.552;2023-04-24T12:47:27;98855.44;;;10.95;100.00
68941;BME280;55982;51.476;7.552;2023-04-24T12:49:52;98834.97;;;11.70;100.00
68941;BME280;55982;51.476;7.552;2023-04-24T12:52:19;98828.97;;;11.51;100.00
68941;BME280;55982;51.476;7.552;2023-04-24T12:54:47;98834.53;;;11.29;100.00
68941;BME280;55982;51.476;7.552;2023-04-24T12:57:12;98849.69;;;11.05;100.00
68941;BME280;55982;51.476;7.552;2023-04-24T12:59:38;98846.00;;;10.92;100.00
68941;BME280;55982;51.476;7.552;2023-04-24T13:02:04;98851.66;;;10.83;100.00
68941;BME280;55982;51.476;7.552;2023-04-24T13:04:30;98853.44;;;10.66;100.00
68941;BME280;55982;51.476;7.552;2023-04-24T13:06:55;98852.53;;;10.31;100.00
68941;BME280;55982;51.476;7.552;2023-04-24T13:09:21;98854.06;;;9.98;100.00
68941;BME280;55982;51.476;7.552;2023-04-24T13:11:46;98862.25;;;9.90;100.00
68941;BME280;55982;51.476;7.552;2023-04-24T13:14:12;98865.75;;;9.71;100.00
68941;BME280;55982;51.476;7.552;2023-04-24T13:16:37;98869.56;;;9.64;100.00
68941;BME280;55982;51.476;7.552;2023-04-24T13:19:02;98862.28;;;9.52;100.00